Time;durP1;ratioP1;P1;durP2;ratioP2;P2;SDS_P1;SDS_P2;PMS_P1;PMS_P2;Temp;Humidity;BMP_temperature;BMP_pressure;BME280_temperature;BME280_humidity;BME280_pressure;Samples;Min_cycle;Max_cycle;Signal;HPM_P1;HPM_P2
2022/11/21 00:00:45;;;;;;;;;;;2.30;99.90;;;;;;5039223;28;19925;-86
2022/11/21 00:03:10;;;;;;;;;;;2.10;99.90;;;;;;5039057;28;19925;-85
2022/11/21 00:05:40;;;;;;;;;;;1.30;99.90;;;;;;5040177;28;19929;-85
2022/11/21 00:08:07;;;;;;;;;;;0.50;99.90;;;;;;5038906;28;19932;-86
2022/11/21 00:10:33;;;;;;;;;;;1.90;99.90;;;;;;5057186;28;19932;-86
2022/11/21 00:12:58;;;;;;;;;;;2.10;99.90;;;;;;5057178;28;20276;-86
2022/11/21 00:15:24;;;;;;;;;;;0.50;99.90;;;;;;5022871;28;19929;-86
2022/11/21 00:17:50;;;;;;;;;;;0.50;99.90;;;;;;5039089;28;19925;-86
2022/11/21 00:20:17;;;;;;;;;;;2.00;99.90;;;;;;5038901;28;19932;-86
2022/11/21 00:22:42;;;;;;;;;;;0.40;99.90;;;;;;5038774;28;19924;-85
2022/11/21 00:25:08;;;;;;;;;;;0.30;99.90;;;;;;5022261;28;19925;-86
2022/11/21 00:27:34;;;;;;;;;;;0.30;99.90;;;;;;5021955;28;20027;-85
2022/11/21 00:29:59;;;;;;;;;;;0.40;99.90;;;;;;5056320;28;19975;-85
2022/11/21 00:32:25;;;;;;;;;;;0.40;99.90;;;;;;5022790;28;20058;-86
2022/11/21 00:34:50;;;;;;;;;;;0.70;99.90;;;;;;5039017;28;19925;-86
2022/11/21 00:37:16;;;;;;;;;;;1.20;99.90;;;;;;5038951;28;20037;-84
2022/11/21 00:39:41;;;;;;;;;;;0.30;99.90;;;;;;5056197;28;20285;-87
2022/11/21 00:42:07;;;;;;;;;;;0.30;99.90;;;;;;5005743;28;20001;-85
2022/11/21 00:44:33;;;;;;;;;;;0.30;99.90;;;;;;5038458;28;19974;-85
2022/11/21 00:46:58;;;;;;;;;;;0.70;99.90;;;;;;5038220;28;19931;-84
2022/11/21 00:49:24;;;;;;;;;;;0.70;99.90;;;;;;5056053;28;19936;-85
2022/11/21 00:51:49;;;;;;;;;;;2.20;99.90;;;;;;5021291;28;19924;-85
2022/11/21 00:54:15;;;;;;;;;;;0.20;99.90;;;;;;5038656;28;19925;-86
2022/11/21 00:56:40;;;;;;;;;;;1.80;99.90;;;;;;5022032;28;20070;-85
2022/11/21 00:59:06;;;;;;;;;;;2.20;99.90;;;;;;5036814;28;19986;-85
2022/11/21 01:01:32;;;;;;;;;;;0.30;99.90;;;;;;5037847;28;20377;-85
2022/11/21 01:03:57;;;;;;;;;;;0.10;99.90;;;;;;5038144;28;19968;-85
2022/11/21 01:06:23;;;;;;;;;;;0.40;99.90;;;;;;5038062;28;19931;-86
2022/11/21 01:08:49;;;;;;;;;;;1.60;99.90;;;;;;5037776;28;20007;-86
2022/11/21 01:11:16;;;;;;;;;;;-0.10;99.90;;;;;;5021493;28;20404;-86
2022/11/21 01:13:42;;;;;;;;;;;1.90;99.90;;;;;;5021640;28;20023;-86
2022/11/21 01:16:07;;;;;;;;;;;1.40;99.90;;;;;;5055611;28;20019;-86
2022/11/21 01:18:33;;;;;;;;;;;1.00;99.90;;;;;;5021451;28;19925;-86
2022/11/21 01:21:00;;;;;;;;;;;0.60;99.90;;;;;;5037916;28;20286;-85
2022/11/21 01:23:26;;;;;;;;;;;1.80;99.90;;;;;;5038622;28;19933;-85
2022/11/21 01:25:52;;;;;;;;;;;0.30;99.90;;;;;;5038569;28;19924;-85
2022/11/21 01:28:17;;;;;;;;;;;-0.70;99.90;;;;;;5038044;28;19947;-85
2022/11/21 01:30:43;;;;;;;;;;;1.50;99.90;;;;;;5037936;28;19974;-86
2022/11/21 01:33:08;;;;;;;;;;;1.70;99.90;;;;;;5037720;28;19925;-86
2022/11/21 01:35:34;;;;;;;;;;;1.50;99.90;;;;;;5038314;28;20020;-86
2022/11/21 01:37:59;;;;;;;;;;;0.40;99.90;;;;;;5038203;28;19924;-86
2022/11/21 01:40:25;;;;;;;;;;;-0.90;99.90;;;;;;5020936;28;19931;-85
2022/11/21 01:42:52;;;;;;;;;;;-0.90;99.90;;;;;;5021403;28;19974;-85
2022/11/21 01:45:37;;;;;;;;;;;0.20;99.90;;;;;;5020901;28;19925;-85
2022/11/21 01:48:02;;;;;;;;;;;-1.00;99.90;;;;;;5037297;28;20000;-85
2022/11/21 01:50:28;;;;;;;;;;;-1.10;99.90;;;;;;5055673;28;20342;-86
2022/11/21 01:52:54;;;;;;;;;;;-1.20;99.90;;;;;;5037569;28;20426;-85
2022/11/21 01:55:19;;;;;;;;;;;1.70;99.90;;;;;;5054732;28;19975;-85
2022/11/21 01:57:47;;;;;;;;;;;-1.20;99.90;;;;;;5054552;28;19924;-85
2022/11/21 02:00:26;;;;;;;;;;;0.80;99.90;;;;;;5038062;28;20357;-85
2022/11/21 02:02:53;;;;;;;;;;;-1.20;99.90;;;;;;5037916;28;19932;-86
2022/11/21 02:05:20;;;;;;;;;;;1.00;99.90;;;;;;5020752;28;19964;-85
2022/11/21 02:07:47;;;;;;;;;;;1.50;99.90;;;;;;5036753;28;19924;-85
2022/11/21 02:10:13;;;;;;;;;;;1.20;99.90;;;;;;5054586;28;19925;-85
2022/11/21 02:12:49;;;;;;;;;;;1.10;99.90;;;;;;5036842;28;20403;-86
2022/11/21 02:15:20;;;;;;;;;;;-1.30;99.90;;;;;;5036832;28;19957;-86
2022/11/21 02:17:46;;;;;;;;;;;-1.30;99.90;;;;;;5036348;28;19932;-86
2022/11/21 02:20:13;;;;;;;;;;;0.90;99.90;;;;;;5036446;28;19924;-86
2022/11/21 02:22:45;;;;;;;;;;;-1.40;99.90;;;;;;5053995;28;19925;-85
2022/11/21 02:25:13;;;;;;;;;;;-1.30;99.90;;;;;;5037323;28;19925;-85
2022/11/21 02:27:38;;;;;;;;;;;-0.80;99.90;;;;;;5036259;28;19925;-86
2022/11/21 02:30:05;;;;;;;;;;;-1.40;99.90;;;;;;5053981;28;19929;-86
2022/11/21 02:32:35;;;;;;;;;;;-1.30;99.90;;;;;;5054178;28;19925;-85
2022/11/21 02:35:01;;;;;;;;;;;-1.40;99.90;;;;;;5054235;28;20265;-85
2022/11/21 02:37:27;;;;;;;;;;;0.90;99.90;;;;;;5036357;28;19925;-86
2022/11/21 02:39:54;;;;;;;;;;;-1.50;99.90;;;;;;5036433;28;19931;-85
2022/11/21 02:42:27;;;;;;;;;;;-0.50;99.90;;;;;;5054471;28;20011;-86
2022/11/21 02:44:56;;;;;;;;;;;-1.50;99.90;;;;;;5053889;28;20011;-85
2022/11/21 02:47:22;;;;;;;;;;;-0.80;99.90;;;;;;5037203;28;19928;-86
2022/11/21 02:49:52;;;;;;;;;;;0.80;99.90;;;;;;5053834;28;19947;-86
2022/11/21 02:52:18;;;;;;;;;;;-0.80;99.90;;;;;;5053756;28;19929;-86
2022/11/21 02:54:43;;;;;;;;;;;-0.50;99.90;;;;;;5036001;28;20427;-86
2022/11/21 02:57:09;;;;;;;;;;;-1.80;99.90;;;;;;5054145;28;19975;-86
2022/11/21 02:59:35;;;;;;;;;;;0.50;99.90;;;;;;5035409;28;20433;-86
2022/11/21 03:02:01;;;;;;;;;;;-0.80;99.90;;;;;;5036126;28;19976;-86
2022/11/21 03:04:27;;;;;;;;;;;0.70;99.90;;;;;;5019614;28;19925;-86
2022/11/21 03:06:53;;;;;;;;;;;0.90;99.90;;;;;;5053553;28;20071;-85
2022/11/21 03:09:18;;;;;;;;;;;-2.10;99.90;;;;;;5053491;28;20444;-86
2022/11/21 03:11:45;;;;;;;;;;;-1.30;99.90;;;;;;5053626;28;19935;-86
2022/11/21 03:14:18;;;;;;;;;;;-1.90;99.90;;;;;;5020439;28;19964;-86
2022/11/21 03:16:43;;;;;;;;;;;1.50;99.90;;;;;;5035764;28;19988;-85
2022/11/21 03:19:09;;;;;;;;;;;0.00;99.90;;;;;;5053515;28;19924;-85
2022/11/21 03:21:34;;;;;;;;;;;-1.90;99.90;;;;;;5036659;28;20435;-86
2022/11/21 03:24:00;;;;;;;;;;;0.10;99.90;;;;;;5039786;28;20016;-86
2022/11/21 03:26:26;;;;;;;;;;;0.80;99.90;;;;;;5058155;28;19925;-87
2022/11/21 03:28:51;;;;;;;;;;;-0.70;99.90;;;;;;5040010;28;19968;-86
2022/11/21 03:31:17;;;;;;;;;;;-2.10;99.90;;;;;;5058006;28;19925;-86
2022/11/21 03:33:42;;;;;;;;;;;-2.30;99.90;;;;;;5040343;28;19925;-86
2022/11/21 03:36:08;;;;;;;;;;;-1.40;99.90;;;;;;5057515;28;19931;-86
2022/11/21 03:38:33;;;;;;;;;;;0.30;99.90;;;;;;5057510;28;19929;-85
2022/11/21 03:41:04;;;;;;;;;;;-2.00;99.90;;;;;;5057405;28;20015;-86
2022/11/21 03:43:30;;;;;;;;;;;-1.90;99.90;;;;;;5039612;28;19924;-86
2022/11/21 03:45:55;;;;;;;;;;;-2.10;99.90;;;;;;5039928;28;19924;-86
2022/11/21 03:48:21;;;;;;;;;;;1.10;99.90;;;;;;5040848;28;19974;-86
2022/11/21 03:50:46;;;;;;;;;;;-0.30;99.90;;;;;;5025901;28;19924;-86
2022/11/21 03:53:12;;;;;;;;;;;0.60;99.90;;;;;;5042717;28;19925;-86
2022/11/21 03:55:37;;;;;;;;;;;0.90;99.90;;;;;;5042510;28;19920;-86
2022/11/21 03:58:03;;;;;;;;;;;-2.10;99.90;;;;;;5042016;28;20351;-85
2022/11/21 04:00:29;;;;;;;;;;;-2.10;99.90;;;;;;5042390;28;19944;-86
2022/11/21 04:02:54;;;;;;;;;;;-1.90;99.90;;;;;;5060096;28;19924;-85
2022/11/21 04:05:20;;;;;;;;;;;0.40;99.90;;;;;;5040468;28;20008;-86
2022/11/21 04:07:45;;;;;;;;;;;-0.10;99.90;;;;;;5040230;28;19925;-86
2022/11/21 04:10:11;;;;;;;;;;;0.10;99.90;;;;;;5039778;28;20003;-86
2022/11/21 04:12:36;;;;;;;;;;;0.00;99.90;;;;;;5039718;28;19975;-86
2022/11/21 04:15:02;;;;;;;;;;;-1.20;99.90;;;;;;5057161;28;19928;-86
2022/11/21 04:17:28;;;;;;;;;;;-2.20;99.90;;;;;;5059856;28;19925;-87
2022/11/21 04:19:53;;;;;;;;;;;0.40;99.90;;;;;;5027384;28;19928;-87
2022/11/21 04:22:19;;;;;;;;;;;0.50;99.90;;;;;;5026667;28;20019;-85
2022/11/21 04:24:45;;;;;;;;;;;0.70;99.90;;;;;;5042809;28;19956;-86
2022/11/21 04:27:10;;;;;;;;;;;0.10;99.90;;;;;;5044045;28;20028;-87
2022/11/21 04:29:36;;;;;;;;;;;-0.10;99.90;;;;;;5024954;28;19931;-86
2022/11/21 04:32:01;;;;;;;;;;;0.40;99.90;;;;;;5057480;28;19968;-86
2022/11/21 04:34:27;;;;;;;;;;;-0.20;99.90;;;;;;5021727;28;19925;-86
2022/11/21 04:36:53;;;;;;;;;;;-2.70;99.90;;;;;;5039064;28;19975;-86
2022/11/21 04:39:18;;;;;;;;;;;0.30;99.90;;;;;;5022278;28;19924;-86
2022/11/21 04:41:44;;;;;;;;;;;-0.20;99.90;;;;;;5039180;28;19937;-85
2022/11/21 04:44:10;;;;;;;;;;;0.40;99.90;;;;;;5038403;28;19986;-86
2022/11/21 04:46:35;;;;;;;;;;;-0.10;99.90;;;;;;5038321;28;20016;-86
2022/11/21 04:49:01;;;;;;;;;;;-2.70;99.90;;;;;;5056639;28;19925;-86
2022/11/21 04:51:26;;;;;;;;;;;-2.30;99.90;;;;;;5038967;28;20377;-86
2022/11/21 04:53:52;;;;;;;;;;;-2.30;99.90;;;;;;5056955;28;19932;-87
2022/11/21 04:56:17;;;;;;;;;;;-2.30;99.90;;;;;;5038554;28;19925;-87
2022/11/21 04:58:44;;;;;;;;;;;0.10;99.90;;;;;;5038933;28;19958;-87
2022/11/21 05:01:15;;;;;;;;;;;-2.30;99.90;;;;;;5056856;28;20387;-86
2022/11/21 05:03:40;;;;;;;;;;;-1.40;99.90;;;;;;5039407;28;19925;-86
2022/11/21 05:06:07;;;;;;;;;;;-0.90;99.90;;;;;;5023444;28;20349;-86
2022/11/21 05:08:32;;;;;;;;;;;-2.20;99.90;;;;;;5022340;28;19925;-86
2022/11/21 05:13:42;;;;;;;;;;;-2.10;99.90;;;;;;5039639;28;20264;-87
2022/11/21 05:16:08;;;;;;;;;;;0.20;99.90;;;;;;5039050;28;19989;-87
2022/11/21 05:18:33;;;;;;;;;;;-0.80;99.90;;;;;;5038599;28;20331;-86
2022/11/21 05:20:59;;;;;;;;;;;-1.60;99.90;;;;;;5038664;28;20280;-87
2022/11/21 05:23:25;;;;;;;;;;;0.60;99.90;;;;;;5038267;28;20334;-86
2022/11/21 05:25:50;;;;;;;;;;;-2.20;99.90;;;;;;5038815;28;19972;-86
2022/11/21 05:28:16;;;;;;;;;;;1.00;99.90;;;;;;5021055;28;19931;-86
2022/11/21 05:30:42;;;;;;;;;;;-2.20;99.90;;;;;;5021183;28;19935;-86
2022/11/21 05:33:07;;;;;;;;;;;0.80;99.90;;;;;;5038356;28;20006;-86
2022/11/21 05:35:33;;;;;;;;;;;-2.40;99.90;;;;;;5055144;28;19971;-86
2022/11/21 05:37:58;;;;;;;;;;;-2.30;99.90;;;;;;5020849;28;19925;-86
2022/11/21 05:40:24;;;;;;;;;;;-2.30;99.90;;;;;;5037784;28;19925;-88
2022/11/21 05:45:34;;;;;;;;;;;-2.30;99.90;;;;;;5038002;28;20027;-87
2022/11/21 05:48:00;;;;;;;;;;;0.60;99.90;;;;;;5054975;28;20014;-87
2022/11/21 05:50:25;;;;;;;;;;;0.50;99.90;;;;;;5037598;28;19924;-87
2022/11/21 05:52:51;;;;;;;;;;;0.40;99.90;;;;;;5037385;28;19924;-87
2022/11/21 05:55:16;;;;;;;;;;;-0.10;99.90;;;;;;5037325;28;19929;-90
2022/11/21 05:57:42;;;;;;;;;;;-0.20;99.90;;;;;;5004627;28;20012;-87
2022/11/21 06:00:08;;;;;;;;;;;-1.60;99.90;;;;;;5019966;28;19920;-89
2022/11/21 06:05:17;;;;;;;;;;;0.20;99.90;;;;;;5037472;28;19920;-88
2022/11/21 06:07:43;;;;;;;;;;;0.00;99.90;;;;;;5037272;28;20269;-88
2022/11/21 06:10:09;;;;;;;;;;;-2.60;99.90;;;;;;5020701;28;20272;-88
2022/11/21 06:12:34;;;;;;;;;;;0.80;99.90;;;;;;5037269;28;19920;-88
2022/11/21 06:15:00;;;;;;;;;;;-0.10;99.90;;;;;;5037687;28;20375;-87
2022/11/21 06:17:25;;;;;;;;;;;-0.10;99.90;;;;;;5004255;28;20333;-87
2022/11/21 06:19:51;;;;;;;;;;;1.10;99.90;;;;;;5036977;28;19921;-88
2022/11/21 06:22:17;;;;;;;;;;;-1.70;99.90;;;;;;5036720;28;19978;-88
2022/11/21 06:24:42;;;;;;;;;;;-2.60;99.90;;;;;;5036941;28;19921;-88
2022/11/21 06:27:08;;;;;;;;;;;-2.70;99.90;;;;;;5003724;28;20352;-89
2022/11/21 06:29:34;;;;;;;;;;;-2.40;99.90;;;;;;5037017;28;19924;-87
2022/11/21 06:31:59;;;;;;;;;;;0.70;99.90;;;;;;5020071;28;20461;-89
2022/11/21 06:34:25;;;;;;;;;;;-2.80;99.90;;;;;;5020153;28;19948;-88
2022/11/21 06:36:51;;;;;;;;;;;-1.90;99.90;;;;;;5020109;28;19932;-89
2022/11/21 06:39:16;;;;;;;;;;;-0.90;99.90;;;;;;5036434;28;19925;-88
2022/11/21 06:41:42;;;;;;;;;;;-2.80;99.90;;;;;;5036225;28;19992;-87
2022/11/21 06:44:08;;;;;;;;;;;0.80;99.90;;;;;;5036144;28;19925;-87
2022/11/21 06:46:33;;;;;;;;;;;-2.60;99.90;;;;;;5019863;28;19950;-87
2022/11/21 06:48:59;;;;;;;;;;;0.70;99.90;;;;;;5035871;28;19924;-87
2022/11/21 06:51:25;;;;;;;;;;;-2.30;99.90;;;;;;5019857;28;19931;-87
2022/11/21 06:53:54;;;;;;;;;;;0.60;99.90;;;;;;5037036;28;19924;-87
2022/11/21 06:56:20;;;;;;;;;;;-2.50;99.90;;;;;;5035851;28;20267;-87
2022/11/21 06:58:46;;;;;;;;;;;0.90;99.90;;;;;;5035681;28;19925;-88
2022/11/21 07:01:12;;;;;;;;;;;-0.30;99.90;;;;;;5054513;28;19925;-88
2022/11/21 07:03:38;;;;;;;;;;;-2.60;99.90;;;;;;5037074;28;19932;-89
2022/11/21 07:06:03;;;;;;;;;;;0.00;99.90;;;;;;5036063;28;20372;-88
2022/11/21 07:08:29;;;;;;;;;;;-2.60;99.90;;;;;;5036813;28;19931;-88
2022/11/21 07:10:59;;;;;;;;;;;-2.60;99.90;;;;;;5036096;28;20393;-88
2022/11/21 07:13:24;;;;;;;;;;;-0.40;99.90;;;;;;5036966;28;19924;-88
2022/11/21 07:15:51;;;;;;;;;;;0.60;99.90;;;;;;5036369;28;20365;-88
2022/11/21 07:18:17;;;;;;;;;;;-2.60;99.90;;;;;;5036049;28;19924;-88
2022/11/21 07:20:43;;;;;;;;;;;0.70;99.90;;;;;;5036004;28;19924;-87
2022/11/21 07:23:09;;;;;;;;;;;-3.20;99.90;;;;;;5036010;28;20376;-89
2022/11/21 07:25:34;;;;;;;;;;;0.70;99.90;;;;;;5020452;28;19925;-88
2022/11/21 07:28:00;;;;;;;;;;;-0.60;99.90;;;;;;5021169;28;19980;-88
2022/11/21 07:30:26;;;;;;;;;;;0.90;99.90;;;;;;5020358;28;20431;-88
2022/11/21 07:32:56;;;;;;;;;;;-2.20;99.90;;;;;;5035897;28;19932;-87
2022/11/21 07:35:21;;;;;;;;;;;-2.10;99.90;;;;;;5019504;28;19979;-87
2022/11/21 07:37:47;;;;;;;;;;;0.20;99.90;;;;;;5036001;28;19928;-87
2022/11/21 07:40:12;;;;;;;;;;;-0.40;99.90;;;;;;5020178;28;19934;-88
2022/11/21 07:42:38;;;;;;;;;;;-1.80;99.90;;;;;;5036029;28;20011;-88
2022/11/21 07:45:04;;;;;;;;;;;-0.20;99.90;;;;;;5019411;28;19974;-89
2022/11/21 07:47:29;;;;;;;;;;;-2.50;99.90;;;;;;5019566;28;19924;-88
2022/11/21 07:49:55;;;;;;;;;;;-2.30;99.90;;;;;;5035405;28;19924;-88
2022/11/21 07:52:20;;;;;;;;;;;-0.40;99.90;;;;;;5019167;28;19925;-89
2022/11/21 07:54:46;;;;;;;;;;;-0.60;99.90;;;;;;5019257;28;19932;-89
2022/11/21 07:57:12;;;;;;;;;;;-2.70;99.90;;;;;;5036386;28;19925;-87
2022/11/21 07:59:37;;;;;;;;;;;-1.20;99.90;;;;;;5035548;28;19929;-88
2022/11/21 08:02:03;;;;;;;;;;;-2.10;99.90;;;;;;5019356;28;19936;-88
2022/11/21 08:04:29;;;;;;;;;;;0.10;99.90;;;;;;5035759;28;19931;-88
2022/11/21 08:06:54;;;;;;;;;;;-2.40;99.90;;;;;;5035450;28;19995;-88
2022/11/21 08:09:20;;;;;;;;;;;-1.90;99.90;;;;;;5038533;28;19983;-88
2022/11/21 08:11:45;;;;;;;;;;;-2.00;99.90;;;;;;5039301;28;19979;-87
2022/11/21 08:14:11;;;;;;;;;;;-2.10;99.90;;;;;;5022855;28;19943;-88
2022/11/21 08:16:37;;;;;;;;;;;0.20;99.90;;;;;;5022072;28;19932;-89
2022/11/21 08:19:02;;;;;;;;;;;-2.20;99.90;;;;;;5039073;28;20020;-88
2022/11/21 08:21:28;;;;;;;;;;;-2.00;99.90;;;;;;5022827;28;20023;-87
2022/11/21 08:23:54;;;;;;;;;;;-1.30;99.90;;;;;;5022886;28;19928;-88
2022/11/21 08:26:20;;;;;;;;;;;0.10;99.90;;;;;;5038945;28;19948;-87
2022/11/21 08:28:45;;;;;;;;;;;0.20;99.90;;;;;;5022156;28;19979;-88
2022/11/21 08:31:11;;;;;;;;;;;0.40;99.90;;;;;;5022345;28;19932;-87
2022/11/21 08:33:37;;;;;;;;;;;-0.20;99.90;;;;;;5022127;28;19931;-87
2022/11/21 08:36:04;;;;;;;;;;;-0.10;99.90;;;;;;5056341;28;19925;-88
2022/11/21 08:38:29;;;;;;;;;;;0.40;99.90;;;;;;5038903;28;19975;-87
2022/11/21 08:43:39;;;;;;;;;;;-1.10;99.90;;;;;;5024712;28;20016;-87
2022/11/21 08:46:05;;;;;;;;;;;-1.20;99.90;;;;;;5022203;28;20020;-86
2022/11/21 08:48:30;;;;;;;;;;;0.70;99.90;;;;;;5038367;28;19946;-87
2022/11/21 08:50:56;;;;;;;;;;;0.50;99.90;;;;;;5038656;28;19924;-87
2022/11/21 08:53:22;;;;;;;;;;;-0.20;99.90;;;;;;5022036;28;20394;-86
2022/11/21 08:55:48;;;;;;;;;;;-0.90;99.90;;;;;;5038566;28;20357;-86
2022/11/21 08:58:13;;;;;;;;;;;0.00;99.90;;;;;;5037771;28;20300;-87
2022/11/21 09:00:39;;;;;;;;;;;1.20;99.90;;;;;;5022732;28;19924;-86
2022/11/21 09:03:04;;;;;;;;;;;-0.70;99.90;;;;;;5039133;28;19970;-87
2022/11/21 09:05:31;;;;;;;;;;;-0.70;99.90;;;;;;5038082;28;19981;-88
2022/11/21 09:07:56;;;;;;;;;;;-0.30;99.90;;;;;;5021620;28;19924;-86
2022/11/21 09:10:22;;;;;;;;;;;1.20;99.90;;;;;;5038296;28;20288;-86
2022/11/21 09:12:48;;;;;;;;;;;-1.40;99.90;;;;;;5022554;28;19925;-88
2022/11/21 09:18:06;;;;;;;;;;;-0.40;99.90;;;;;;5038461;28;19925;-88
2022/11/21 09:20:33;;;;;;;;;;;-0.40;99.90;;;;;;5021261;28;19925;-89
2022/11/21 09:23:05;;;;;;;;;;;0.00;99.90;;;;;;5021559;28;19992;-89
2022/11/21 09:25:31;;;;;;;;;;;-0.30;99.90;;;;;;5038331;28;19978;-88
2022/11/21 09:28:04;;;;;;;;;;;-0.30;99.90;;;;;;5021329;28;20015;-88
2022/11/21 09:30:29;;;;;;;;;;;-0.20;99.90;;;;;;5038611;28;19925;-88
2022/11/21 09:32:59;;;;;;;;;;;0.30;99.90;;;;;;5022041;28;20341;-89
2022/11/21 09:35:25;;;;;;;;;;;-0.10;99.90;;;;;;5037913;28;19925;-87
2022/11/21 09:37:50;;;;;;;;;;;-0.10;99.90;;;;;;5055984;28;19978;-89
2022/11/21 09:40:16;;;;;;;;;;;0.90;99.90;;;;;;5021303;28;19924;-89
2022/11/21 09:42:51;;;;;;;;;;;0.00;99.90;;;;;;5038048;28;19932;-89
2022/11/21 09:45:21;;;;;;;;;;;1.10;99.90;;;;;;5037776;28;19925;-88
2022/11/21 09:47:48;;;;;;;;;;;1.60;99.90;;;;;;5021101;28;20365;-88
2022/11/21 09:50:14;;;;;;;;;;;0.10;99.90;;;;;;5037268;28;19979;-87
2022/11/21 09:52:58;;;;;;;;;;;1.90;99.90;;;;;;5020901;28;20285;-87
2022/11/21 09:55:27;;;;;;;;;;;0.20;99.90;;;;;;5037647;28;20293;-88
2022/11/21 09:57:53;;;;;;;;;;;0.20;99.90;;;;;;5021539;28;20317;-88
2022/11/21 10:00:20;;;;;;;;;;;0.20;99.90;;;;;;5033724;28;19925;-87
2022/11/21 10:02:46;;;;;;;;;;;0.30;99.90;;;;;;5034705;28;20035;-88
2022/11/21 10:05:13;;;;;;;;;;;1.70;99.90;;;;;;5018235;28;20365;-88
2022/11/21 10:07:39;;;;;;;;;;;0.30;99.90;;;;;;5034504;28;19929;-88
2022/11/21 10:10:30;;;;;;;;;;;0.30;99.90;;;;;;5016675;28;20381;-87
2022/11/21 10:12:56;;;;;;;;;;;0.20;99.90;;;;;;5017625;28;19979;-88
2022/11/21 10:15:24;;;;;;;;;;;0.20;99.90;;;;;;5032991;28;19929;-88
2022/11/21 10:17:50;;;;;;;;;;;0.20;99.90;;;;;;5033986;28;19925;-89
2022/11/21 10:20:22;;;;;;;;;;;1.90;99.90;;;;;;5033821;28;19971;-88
2022/11/21 10:22:52;;;;;;;;;;;0.20;99.90;;;;;;5017953;28;19925;-89
2022/11/21 10:25:21;;;;;;;;;;;0.20;99.90;;;;;;5016998;28;19925;-87
2022/11/21 10:27:56;;;;;;;;;;;0.90;99.90;;;;;;5016934;28;20016;-87
2022/11/21 10:30:22;;;;;;;;;;;0.30;99.90;;;;;;5017225;28;20306;-88
2022/11/21 10:32:49;;;;;;;;;;;1.50;99.90;;;;;;4999542;28;19933;-86
2022/11/21 10:35:18;;;;;;;;;;;1.10;99.90;;;;;;5017684;28;19929;-87
2022/11/21 10:37:48;;;;;;;;;;;0.40;99.90;;;;;;5033228;28;19925;-88
2022/11/21 10:40:20;;;;;;;;;;;0.50;99.90;;;;;;5034151;28;19929;-88
2022/11/21 10:42:55;;;;;;;;;;;0.50;99.90;;;;;;5016806;28;20285;-88
2022/11/21 10:45:21;;;;;;;;;;;0.60;99.90;;;;;;5016826;28;19993;-89
2022/11/21 10:47:48;;;;;;;;;;;0.80;99.90;;;;;;5033075;28;20281;-88
2022/11/21 10:50:27;;;;;;;;;;;0.90;99.90;;;;;;5032899;28;19936;-87
2022/11/21 10:53:01;;;;;;;;;;;0.70;99.90;;;;;;5033495;28;19925;-87
2022/11/21 10:55:27;;;;;;;;;;;2.30;99.90;;;;;;5016534;28;20016;-87
2022/11/21 10:57:53;;;;;;;;;;;0.90;99.90;;;;;;5001185;28;19987;-87
2022/11/21 11:00:21;;;;;;;;;;;1.10;99.90;;;;;;5032995;28;19975;-88
2022/11/21 11:02:56;;;;;;;;;;;1.00;99.90;;;;;;5032840;28;20025;-87
2022/11/21 11:05:25;;;;;;;;;;;1.10;99.90;;;;;;5016045;28;20428;-87
2022/11/21 11:08:01;;;;;;;;;;;1.10;99.90;;;;;;5032792;28;19925;-89
2022/11/21 11:10:27;;;;;;;;;;;1.20;99.90;;;;;;5033044;28;20373;-87
2022/11/21 11:15:50;;;;;;;;;;;3.10;99.90;;;;;;5002947;28;19925;-88
2022/11/21 11:18:18;;;;;;;;;;;2.40;99.90;;;;;;5016369;28;19925;-87
2022/11/21 11:20:44;;;;;;;;;;;2.30;99.90;;;;;;5016779;28;20284;-86
2022/11/21 11:23:19;;;;;;;;;;;1.00;99.90;;;;;;5016105;28;19964;-87
2022/11/21 11:25:49;;;;;;;;;;;0.90;99.90;;;;;;5016371;28;19980;-88
2022/11/21 11:28:15;;;;;;;;;;;2.40;99.90;;;;;;5016211;28;19925;-87
2022/11/21 11:30:41;;;;;;;;;;;1.40;99.90;;;;;;5016351;28;19925;-87
2022/11/21 11:33:26;;;;;;;;;;;2.50;99.90;;;;;;5016710;28;19925;-88
2022/11/21 11:35:52;;;;;;;;;;;0.70;99.90;;;;;;4999757;28;19932;-87
2022/11/21 11:38:19;;;;;;;;;;;2.30;99.90;;;;;;5000626;28;19926;-88
2022/11/21 11:40:45;;;;;;;;;;;0.60;99.90;;;;;;4999582;28;20369;-87
2022/11/21 11:48:58;;;;;;;;;;;0.60;99.90;;;;;;5019835;28;20028;-87
2022/11/21 11:51:26;;;;;;;;;;;1.80;99.90;;;;;;5003545;28;19933;-87
2022/11/21 11:53:59;;;;;;;;;;;0.70;99.90;;;;;;5020199;28;19929;-87
2022/11/21 11:56:35;;;;;;;;;;;0.80;99.90;;;;;;5019665;28;19948;-86
2022/11/21 11:59:10;;;;;;;;;;;0.90;99.90;;;;;;5007580;28;19925;-87
2022/11/21 12:01:38;;;;;;;;;;;1.00;99.90;;;;;;5024152;28;19924;-86
2022/11/21 12:04:03;;;;;;;;;;;1.80;99.90;;;;;;5039394;28;19929;-86
2022/11/21 12:06:48;;;;;;;;;;;2.20;99.90;;;;;;5039537;28;19970;-89
2022/11/21 12:09:23;;;;;;;;;;;1.10;99.90;;;;;;5039307;28;19986;-87
2022/11/21 12:12:07;;;;;;;;;;;1.10;99.90;;;;;;5039827;28;19929;-88
2022/11/21 12:17:39;;;;;;;;;;;1.20;99.90;;;;;;5040068;28;19972;-87
2022/11/21 12:20:12;;;;;;;;;;;1.30;99.90;;;;;;5023057;28;19932;-87
2022/11/21 12:22:37;;;;;;;;;;;1.40;99.90;;;;;;5022662;28;19925;-87
2022/11/21 12:25:08;;;;;;;;;;;2.00;99.90;;;;;;5023063;28;20331;-88
2022/11/21 12:27:34;;;;;;;;;;;1.60;99.90;;;;;;5022911;28;19978;-87
2022/11/21 12:30:07;;;;;;;;;;;1.70;99.90;;;;;;5039135;28;19929;-88
2022/11/21 12:32:42;;;;;;;;;;;2.10;99.90;;;;;;5023855;28;19971;-88
2022/11/21 12:35:19;;;;;;;;;;;1.80;99.90;;;;;;5057524;28;19925;-88
2022/11/21 12:38:05;;;;;;;;;;;1.80;99.90;;;;;;5039242;28;19924;-88
2022/11/21 12:40:46;;;;;;;;;;;1.90;99.90;;;;;;4973464;28;19925;-86
2022/11/21 12:43:44;;;;;;;;;;;2.00;99.90;;;;;;5039309;28;19974;-87
2022/11/21 12:46:17;;;;;;;;;;;2.10;99.90;;;;;;4969351;28;20199;-87
2022/11/21 12:54:52;;;;;;;;;;;2.30;99.90;;;;;;5040411;28;19925;-90
2022/11/21 12:57:19;;;;;;;;;;;2.30;99.90;;;;;;5041162;28;20253;-90
2022/11/21 12:59:45;;;;;;;;;;;2.50;99.90;;;;;;5021616;28;20268;-89
2022/11/21 13:02:30;;;;;;;;;;;3.80;99.90;;;;;;5056111;28;19929;-90
2022/11/21 13:04:57;;;;;;;;;;;2.40;99.90;;;;;;5022247;28;19924;-90
2022/11/21 13:07:24;;;;;;;;;;;2.80;99.90;;;;;;5021979;28;19932;-91
2022/11/21 13:09:52;;;;;;;;;;;2.50;99.90;;;;;;5021674;28;19963;-90
2022/11/21 13:12:36;;;;;;;;;;;4.10;99.90;;;;;;5038617;28;20012;-89
2022/11/21 13:15:10;;;;;;;;;;;2.50;99.90;;;;;;5038472;28;19924;-90
2022/11/21 13:17:42;;;;;;;;;;;2.40;99.90;;;;;;5021710;28;19993;-89
2022/11/21 13:20:19;;;;;;;;;;;4.40;99.90;;;;;;5021686;28;19931;-89
2022/11/21 13:22:45;;;;;;;;;;;2.60;99.90;;;;;;5021699;28;19980;-90
2022/11/21 13:25:26;;;;;;;;;;;2.70;99.90;;;;;;5022587;28;19928;-90
2022/11/21 13:27:54;;;;;;;;;;;2.60;99.90;;;;;;5038101;28;19988;-89
2022/11/21 13:30:22;;;;;;;;;;;4.20;99.90;;;;;;5021323;28;19925;-89
2022/11/21 13:32:47;;;;;;;;;;;2.70;99.90;;;;;;5021566;28;19932;-88
2022/11/21 13:35:13;;;;;;;;;;;2.20;99.90;;;;;;5037523;28;19928;-89
2022/11/21 13:37:48;;;;;;;;;;;2.60;99.90;;;;;;5022124;28;19932;-89
2022/11/21 13:40:26;;;;;;;;;;;2.60;99.90;;;;;;5037962;28;19932;-89
2022/11/21 13:43:08;;;;;;;;;;;2.60;99.90;;;;;;5021290;28;20015;-89
2022/11/21 13:45:37;;;;;;;;;;;2.70;99.90;;;;;;5038010;28;19935;-89
2022/11/21 13:48:21;;;;;;;;;;;2.60;99.90;;;;;;5037702;28;19929;-89
2022/11/21 13:50:47;;;;;;;;;;;2.60;99.90;;;;;;5037597;28;19971;-86
2022/11/21 13:53:16;;;;;;;;;;;3.80;99.90;;;;;;5021209;28;19924;-88
2022/11/21 13:55:41;;;;;;;;;;;2.60;99.90;;;;;;5037593;28;20288;-88
2022/11/21 13:58:26;;;;;;;;;;;4.20;99.90;;;;;;5037292;28;19925;-88
2022/11/21 14:01:11;;;;;;;;;;;2.70;99.90;;;;;;5021405;28;19925;-88
2022/11/21 14:03:42;;;;;;;;;;;2.70;99.90;;;;;;5022759;28;20357;-88
2022/11/21 14:06:27;;;;;;;;;;;2.70;99.90;;;;;;5038353;28;19924;-88
2022/11/21 14:09:13;;;;;;;;;;;2.80;99.90;;;;;;5020729;28;19932;-90
2022/11/21 14:11:41;;;;;;;;;;;1.30;99.90;;;;;;5021525;28;19925;-88
2022/11/21 14:14:08;;;;;;;;;;;2.80;99.90;;;;;;5020823;28;19970;-87
2022/11/21 14:16:35;;;;;;;;;;;3.50;99.90;;;;;;5020779;28;20449;-90
2022/11/21 14:19:01;;;;;;;;;;;2.80;99.90;;;;;;5021552;28;19931;-85
2022/11/21 14:21:31;;;;;;;;;;;2.90;99.90;;;;;;5037240;28;19997;-85
2022/11/21 14:24:03;;;;;;;;;;;2.80;99.90;;;;;;5054461;28;20016;-85
2022/11/21 14:26:31;;;;;;;;;;;4.50;99.90;;;;;;5021417;28;20419;-87
2022/11/21 14:29:15;;;;;;;;;;;2.80;99.90;;;;;;5037211;28;19924;-87
2022/11/21 14:31:47;;;;;;;;;;;3.30;99.90;;;;;;5020526;28;19925;-87
2022/11/21 14:34:22;;;;;;;;;;;2.80;99.90;;;;;;5037622;28;20269;-86
2022/11/21 14:36:47;;;;;;;;;;;3.20;99.90;;;;;;5055582;28;19932;-86
2022/11/21 14:39:15;;;;;;;;;;;2.80;99.90;;;;;;5036677;28;20008;-87
2022/11/21 14:41:41;;;;;;;;;;;2.80;99.90;;;;;;5054319;28;19925;-86
2022/11/21 14:44:07;;;;;;;;;;;2.80;99.90;;;;;;5020105;28;19924;-87
2022/11/21 14:46:34;;;;;;;;;;;4.00;99.90;;;;;;5036965;28;20051;-87
2022/11/21 14:49:15;;;;;;;;;;;3.20;99.90;;;;;;5036268;28;19932;-87
2022/11/21 14:51:48;;;;;;;;;;;2.90;99.90;;;;;;5036347;28;19986;-86
2022/11/21 14:54:18;;;;;;;;;;;2.80;99.90;;;;;;5036224;28;19971;-87
2022/11/21 14:56:50;;;;;;;;;;;2.80;99.90;;;;;;5020193;28;20265;-88
2022/11/21 14:59:23;;;;;;;;;;;2.90;99.90;;;;;;5036062;28;19931;-87
2022/11/21 15:01:56;;;;;;;;;;;2.80;99.90;;;;;;5036550;28;19924;-86